createdAt,value
2023-07-20T00:00:26.161Z,0.00
2023-07-20T00:01:26.176Z,0.00
2023-07-20T00:02:26.204Z,0.00
2023-07-20T00:03:26.146Z,0.00
2023-07-20T00:04:26.194Z,0.00
2023-07-20T00:05:26.321Z,0.00
2023-07-20T00:06:26.112Z,0.00
2023-07-20T00:07:26.147Z,0.00
2023-07-20T00:08:26.101Z,0.00
2023-07-20T00:09:26.094Z,0.00
2023-07-20T00:10:26.092Z,0.00
2023-07-20T00:11:26.080Z,0.00
2023-07-20T00:12:26.078Z,0.00
2023-07-20T00:13:26.082Z,0.00
2023-07-20T00:14:26.064Z,0.00
2023-07-20T00:15:26.068Z,0.00
2023-07-20T00:16:26.428Z,0.00
2023-07-20T00:17:26.069Z,0.00
2023-07-20T00:18:26.051Z,0.00
2023-07-20T00:19:26.062Z,0.00
2023-07-20T00:20:26.051Z,0.00
2023-07-20T00:21:26.038Z,0.00
2023-07-20T00:22:26.037Z,0.00
2023-07-20T00:23:26.029Z,0.00
2023-07-20T00:24:26.028Z,0.00
2023-07-20T00:25:26.043Z,0.00
2023-07-20T00:26:26.228Z,0.00
2023-07-20T00:27:26.011Z,0.00
2023-07-20T00:28:26.016Z,0.00
2023-07-20T00:29:26.010Z,0.00
2023-07-20T00:30:26.022Z,0.00
2023-07-20T00:31:25.995Z,0.00
2023-07-20T00:32:25.988Z,0.00
2023-07-20T00:33:25.989Z,0.00
2023-07-20T00:34:26.631Z,0.00
2023-07-20T00:35:25.975Z,0.00
2023-07-20T00:36:25.978Z,0.00
2023-07-20T00:37:26.008Z,0.00
2023-07-20T00:38:25.968Z,0.00
2023-07-20T00:39:25.963Z,0.00
2023-07-20T00:40:25.957Z,0.00
2023-07-20T00:41:25.958Z,0.00
2023-07-20T00:42:26.632Z,0.00
2023-07-20T00:43:25.942Z,0.00
2023-07-20T00:44:25.946Z,0.00
2023-07-20T00:45:25.935Z,0.00
2023-07-20T00:46:26.491Z,0.00
2023-07-20T00:47:25.944Z,0.00
2023-07-20T00:48:25.923Z,0.00
2023-07-20T00:49:25.914Z,0.00
2023-07-20T00:50:25.910Z,0.00
2023-07-20T00:51:25.913Z,0.00
2023-07-20T00:52:25.960Z,0.00
2023-07-20T00:53:25.899Z,0.00
2023-07-20T00:54:25.891Z,0.00
2023-07-20T00:55:25.888Z,0.00
2023-07-20T00:56:26.166Z,0.00
2023-07-20T00:57:25.935Z,0.00
2023-07-20T00:58:25.877Z,0.00
2023-07-20T00:59:25.872Z,0.00
2023-07-20T01:00:25.874Z,0.00
2023-07-20T01:01:25.897Z,0.00
2023-07-20T01:02:25.876Z,0.00
2023-07-20T01:03:25.984Z,0.00
2023-07-20T01:04:25.858Z,0.00
2023-07-20T01:05:25.843Z,0.00
2023-07-20T01:06:25.901Z,0.00
2023-07-20T01:07:25.850Z,0.00
2023-07-20T01:08:25.844Z,0.00
2023-07-20T01:09:25.835Z,0.00
2023-07-20T01:10:25.822Z,0.00
2023-07-20T01:11:25.818Z,0.00
2023-07-20T01:12:25.819Z,0.00
2023-07-20T01:13:25.842Z,0.00
2023-07-20T01:14:25.806Z,0.00
2023-07-20T01:15:25.802Z,0.00
2023-07-20T01:16:26.273Z,0.00
2023-07-20T01:17:25.826Z,0.00
2023-07-20T01:18:25.858Z,0.00
2023-07-20T01:19:25.795Z,0.00
2023-07-20T01:20:25.781Z,0.00
2023-07-20T01:21:25.771Z,0.00
2023-07-20T01:22:25.824Z,0.00
2023-07-20T01:23:25.910Z,0.00
2023-07-20T01:24:25.766Z,0.00
2023-07-20T01:25:25.774Z,0.00
2023-07-20T01:26:25.760Z,0.00
2023-07-20T01:27:25.768Z,0.00
2023-07-20T01:28:25.807Z,0.00
2023-07-20T01:29:25.736Z,0.00
2023-07-20T01:30:25.750Z,0.00
2023-07-20T01:31:25.798Z,0.00
2023-07-20T01:32:25.798Z,0.00
2023-07-20T01:33:25.727Z,0.00
2023-07-20T01:34:25.714Z,0.00
2023-07-20T01:35:25.714Z,0.00
2023-07-20T01:36:25.744Z,0.00
2023-07-20T01:37:25.704Z,0.00
2023-07-20T01:38:25.697Z,0.00
2023-07-20T01:39:25.693Z,0.00
2023-07-20T01:40:25.691Z,0.00
2023-07-20T01:41:25.691Z,0.00
2023-07-20T01:42:25.681Z,0.00
2023-07-20T01:43:25.677Z,0.00
2023-07-20T01:44:25.675Z,0.00
2023-07-20T01:45:25.683Z,0.00
2023-07-20T01:46:25.953Z,0.00
2023-07-20T01:47:25.730Z,0.00
2023-07-20T01:48:25.666Z,0.00
2023-07-20T01:49:25.653Z,0.00
2023-07-20T01:50:25.658Z,0.00
2023-07-20T01:51:25.646Z,0.00
2023-07-20T01:52:25.644Z,0.00
2023-07-20T01:53:25.633Z,0.00
2023-07-20T01:54:25.635Z,0.00
2023-07-20T01:55:25.674Z,0.00
2023-07-20T01:56:25.824Z,0.00
2023-07-20T01:57:25.615Z,0.00
2023-07-20T01:58:25.611Z,0.00
2023-07-20T01:59:25.606Z,0.00
2023-07-20T02:00:25.639Z,0.00
2023-07-20T02:01:25.698Z,0.00
2023-07-20T02:02:25.624Z,0.00
2023-07-20T02:03:25.588Z,0.00
2023-07-20T02:04:25.586Z,0.00
2023-07-20T02:05:25.669Z,0.00
2023-07-20T02:06:26.117Z,0.00
2023-07-20T02:07:25.574Z,0.00
2023-07-20T02:08:25.568Z,0.00
2023-07-20T02:09:25.582Z,0.00
2023-07-20T02:10:25.608Z,0.00
2023-07-20T02:11:25.555Z,0.00
2023-07-20T02:12:25.550Z,0.00
2023-07-20T02:13:25.542Z,0.00
2023-07-20T02:14:25.554Z,0.00
2023-07-20T02:15:25.574Z,0.00
2023-07-20T02:16:25.883Z,0.00
2023-07-20T02:17:25.574Z,0.00
2023-07-20T02:18:25.520Z,0.00
2023-07-20T02:19:25.517Z,0.00
2023-07-20T02:20:25.512Z,0.00
2023-07-20T02:21:25.597Z,0.00
2023-07-20T02:22:25.515Z,0.00
2023-07-20T02:23:25.507Z,0.00
2023-07-20T02:24:25.493Z,0.00
2023-07-20T02:25:25.520Z,0.00
2023-07-20T02:26:25.687Z,0.00
2023-07-20T02:27:25.482Z,0.00
2023-07-20T02:28:25.477Z,0.00
2023-07-20T02:29:25.471Z,0.00
2023-07-20T02:30:25.470Z,0.00
2023-07-20T02:31:25.496Z,0.00
2023-07-20T02:32:25.460Z,0.00
2023-07-20T02:33:25.455Z,0.00
2023-07-20T02:34:25.457Z,0.00
2023-07-20T02:35:25.445Z,0.00
2023-07-20T02:36:25.707Z,0.00
2023-07-20T02:37:25.455Z,0.00
2023-07-20T02:38:25.434Z,4.00
2023-07-20T02:39:25.425Z,4.00
2023-07-20T02:40:25.427Z,4.00
2023-07-20T02:41:25.448Z,0.00
2023-07-20T02:42:25.421Z,4.00
2023-07-20T02:43:25.407Z,4.00
2023-07-20T02:44:25.411Z,4.00
2023-07-20T02:45:25.400Z,4.00
2023-07-20T02:46:25.765Z,4.00
2023-07-20T02:47:25.397Z,8.00
2023-07-20T02:48:25.385Z,4.00
2023-07-20T02:49:25.376Z,8.00
2023-07-20T02:50:25.374Z,8.00
2023-07-20T02:51:25.371Z,8.00
2023-07-20T02:52:25.365Z,12.00
2023-07-20T02:53:25.377Z,12.00
2023-07-20T02:54:25.353Z,8.00
2023-07-20T02:55:25.356Z,12.00
2023-07-20T02:56:25.343Z,12.00
2023-07-20T02:57:25.338Z,16.00
2023-07-20T02:58:25.334Z,20.00
2023-07-20T02:59:25.337Z,20.00
2023-07-20T03:00:25.329Z,28.00
2023-07-20T03:01:25.385Z,32.00
2023-07-20T03:02:25.321Z,36.00
2023-07-20T03:03:25.388Z,40.00
2023-07-20T03:04:25.305Z,48.00
2023-07-20T03:05:25.299Z,56.00
2023-07-20T03:06:25.731Z,52.00
2023-07-20T03:07:25.290Z,48.00
2023-07-20T03:08:25.341Z,52.00
2023-07-20T03:09:25.281Z,56.00
2023-07-20T03:10:25.300Z,64.00
2023-07-20T03:11:25.273Z,68.00
2023-07-20T03:12:25.268Z,72.00
2023-07-20T03:13:25.262Z,72.00
2023-07-20T03:14:25.254Z,76.00
2023-07-20T03:15:25.259Z,76.00
2023-07-20T03:16:25.532Z,80.00
2023-07-20T03:17:25.287Z,68.00
2023-07-20T03:18:25.240Z,76.00
2023-07-20T03:19:25.229Z,72.00
2023-07-20T03:20:25.258Z,64.00
2023-07-20T03:21:25.224Z,64.00
2023-07-20T03:22:25.216Z,60.00
2023-07-20T03:23:25.214Z,64.00
2023-07-20T03:24:25.214Z,68.00
2023-07-20T03:25:27.893Z,72.00
2023-07-20T03:26:25.448Z,68.00
2023-07-20T03:27:25.190Z,76.00
2023-07-20T03:28:25.184Z,80.00
2023-07-20T03:29:25.177Z,80.00
2023-07-20T03:30:25.174Z,88.00
2023-07-20T03:31:25.244Z,104.00
2023-07-20T03:32:25.187Z,108.00
2023-07-20T03:33:25.160Z,128.00
2023-07-20T03:34:25.163Z,120.00
2023-07-20T03:35:25.155Z,144.00
2023-07-20T03:36:25.324Z,180.00
2023-07-20T03:37:25.138Z,224.00
2023-07-20T03:38:25.148Z,288.00
2023-07-20T03:39:25.132Z,328.00
2023-07-20T03:40:25.140Z,356.00
2023-07-20T03:41:25.125Z,320.00
2023-07-20T03:42:25.113Z,320.00
2023-07-20T03:43:25.111Z,344.00
2023-07-20T03:44:25.114Z,344.00
2023-07-20T03:45:25.179Z,400.00
2023-07-20T03:46:25.527Z,392.00
2023-07-20T03:47:25.113Z,384.00
2023-07-20T03:48:25.090Z,432.00
2023-07-20T03:49:25.085Z,420.00
2023-07-20T03:50:25.073Z,384.00
2023-07-20T03:51:25.071Z,352.00
2023-07-20T03:52:25.064Z,388.00
2023-07-20T03:53:25.063Z,420.00
2023-07-20T03:54:25.056Z,420.00
2023-07-20T03:55:25.047Z,392.00
2023-07-20T03:56:25.170Z,424.00
2023-07-20T03:57:25.053Z,420.00
2023-07-20T03:58:25.034Z,424.00
2023-07-20T03:59:25.026Z,412.00
2023-07-20T04:00:25.023Z,392.00
2023-07-20T04:01:25.146Z,428.00
2023-07-20T04:02:25.052Z,408.00
2023-07-20T04:03:25.089Z,420.00
2023-07-20T04:04:25.017Z,400.00
2023-07-20T04:05:24.999Z,444.00
2023-07-20T04:06:25.357Z,488.00
2023-07-20T04:07:25.015Z,508.00
2023-07-20T04:08:25.011Z,608.00
2023-07-20T04:09:25.021Z,560.00
2023-07-20T04:10:24.987Z,524.00
2023-07-20T04:11:25.017Z,464.00
2023-07-20T04:12:24.988Z,476.00
2023-07-20T04:13:24.958Z,524.00
2023-07-20T04:14:24.956Z,468.00
2023-07-20T04:15:24.957Z,512.00
2023-07-20T04:16:25.235Z,596.00
2023-07-20T04:17:24.948Z,628.00
2023-07-20T04:18:24.933Z,720.00
2023-07-20T04:19:24.950Z,768.00
2023-07-20T04:20:24.931Z,884.00
2023-07-20T04:21:24.919Z,1232.00
2023-07-20T04:22:24.924Z,1340.00
2023-07-20T04:23:24.919Z,1344.00
2023-07-20T04:24:24.914Z,1356.00
2023-07-20T04:25:24.900Z,1436.00
2023-07-20T04:26:25.035Z,1544.00
2023-07-20T04:27:24.890Z,1536.00
2023-07-20T04:28:24.888Z,1672.00
2023-07-20T04:29:24.900Z,1840.00
2023-07-20T04:30:24.884Z,1996.00
2023-07-20T04:31:24.962Z,1992.00
2023-07-20T04:32:24.912Z,2004.00
2023-07-20T04:33:24.867Z,2084.00
2023-07-20T04:34:24.854Z,2352.00
2023-07-20T04:35:24.852Z,2300.00
2023-07-20T04:36:25.051Z,2368.00
2023-07-20T04:37:24.844Z,2376.00
2023-07-20T04:38:24.863Z,2244.00
2023-07-20T04:39:31.416Z,2680.00
2023-07-20T04:40:24.827Z,2872.00
2023-07-20T04:41:24.831Z,2932.00
2023-07-20T04:42:24.818Z,2880.00
2023-07-20T04:43:24.818Z,2896.00
2023-07-20T04:44:24.808Z,3016.00
2023-07-20T04:45:24.829Z,3128.00
2023-07-20T04:46:25.157Z,3380.00
2023-07-20T04:47:24.843Z,3572.00
2023-07-20T04:48:24.794Z,3728.00
2023-07-20T04:49:24.791Z,3764.00
2023-07-20T04:50:24.818Z,3748.00
2023-07-20T04:51:24.791Z,3560.00
2023-07-20T04:52:37.499Z,3268.00
2023-07-20T04:53:24.768Z,3200.00
2023-07-20T04:54:24.766Z,2880.00
2023-07-20T04:55:24.769Z,3248.00
2023-07-20T04:56:25.133Z,3136.00
2023-07-20T04:57:24.747Z,2952.00
2023-07-20T04:58:24.765Z,2856.00
2023-07-20T04:59:24.771Z,2848.00
2023-07-20T05:00:24.742Z,2688.00
2023-07-20T05:01:24.764Z,2572.00
2023-07-20T05:02:24.784Z,2548.00
2023-07-20T05:03:24.823Z,2476.00
2023-07-20T05:04:24.804Z,2448.00
2023-07-20T05:05:24.712Z,2376.00
2023-07-20T05:06:25.107Z,2576.00
2023-07-20T05:07:24.707Z,2744.00
2023-07-20T05:08:24.705Z,2800.00
2023-07-20T05:09:24.701Z,2848.00
2023-07-20T05:10:24.696Z,2740.00
2023-07-20T05:11:24.690Z,3044.00
2023-07-20T05:12:24.688Z,3264.00
2023-07-20T05:13:24.697Z,3456.00
2023-07-20T05:14:24.677Z,3844.00
2023-07-20T05:15:24.672Z,4176.00
2023-07-20T05:16:24.901Z,4628.00
2023-07-20T05:17:24.691Z,4944.00
2023-07-20T05:18:24.664Z,4980.00
2023-07-20T05:19:24.663Z,4812.00
2023-07-20T05:20:24.676Z,4716.00
2023-07-20T05:21:24.642Z,4828.00
2023-07-20T05:22:24.640Z,4732.00
2023-07-20T05:23:24.642Z,4924.00
2023-07-20T05:24:24.629Z,5224.00
2023-07-20T05:25:24.629Z,5360.00
2023-07-20T05:26:24.829Z,5040.00
2023-07-20T05:27:24.624Z,5976.00
2023-07-20T05:28:24.613Z,5820.00
2023-07-20T05:29:24.616Z,5296.00
2023-07-20T05:30:24.605Z,5036.00
2023-07-20T05:31:24.662Z,5604.00
2023-07-20T05:32:24.616Z,5168.00
2023-07-20T05:33:24.602Z,5188.00
2023-07-20T05:34:24.587Z,4656.00
2023-07-20T05:35:24.584Z,4600.00
2023-07-20T05:36:24.841Z,4660.00
2023-07-20T05:37:24.583Z,5856.00
2023-07-20T05:38:24.584Z,6604.00
2023-07-20T05:39:24.568Z,9028.00
2023-07-20T05:40:24.562Z,9168.00
2023-07-20T05:41:24.562Z,8052.00
2023-07-20T05:42:24.557Z,9856.00
2023-07-20T05:43:24.551Z,9868.00
2023-07-20T05:44:24.547Z,9148.00
2023-07-20T05:45:24.561Z,10328.00
2023-07-20T05:46:24.773Z,9792.00
2023-07-20T05:47:24.569Z,9812.00
2023-07-20T05:48:24.532Z,9524.00
2023-07-20T05:49:24.529Z,9240.00
2023-07-20T05:50:24.528Z,9192.00
2023-07-20T05:51:24.525Z,9756.00
2023-07-20T05:52:24.532Z,10036.00
2023-07-20T05:53:24.522Z,13256.00
2023-07-20T05:54:24.512Z,10452.00
2023-07-20T05:55:24.516Z,10792.00
2023-07-20T05:56:24.814Z,10216.00
2023-07-20T05:57:24.505Z,14692.00
2023-07-20T05:58:24.601Z,15168.00
2023-07-20T05:59:24.497Z,12736.00
2023-07-20T06:00:24.498Z,19264.00
2023-07-20T06:01:24.541Z,17568.00
2023-07-20T06:02:24.519Z,13820.00
2023-07-20T06:03:24.524Z,12520.00
2023-07-20T06:04:24.490Z,12864.00
2023-07-20T06:05:26.431Z,13264.00
2023-07-20T06:06:24.735Z,10692.00
2023-07-20T06:07:24.489Z,10036.00
2023-07-20T06:08:24.484Z,9960.00
2023-07-20T06:09:24.479Z,9232.00
2023-07-20T06:10:24.478Z,9144.00
2023-07-20T06:11:24.483Z,8804.00
2023-07-20T06:12:24.477Z,8520.00
2023-07-20T06:13:24.474Z,14016.00
2023-07-20T06:14:24.478Z,23328.00
2023-07-20T06:15:24.470Z,8032.00
2023-07-20T06:16:24.715Z,11004.00
2023-07-20T06:17:24.530Z,30304.00
2023-07-20T06:18:24.465Z,9272.00
2023-07-20T06:19:24.474Z,8916.00
2023-07-20T06:20:24.883Z,31168.00
2023-07-20T06:21:24.461Z,28800.00
2023-07-20T06:22:24.463Z,12088.00
2023-07-20T06:23:24.459Z,12132.00
2023-07-20T06:24:24.456Z,10148.00
2023-07-20T06:25:24.474Z,20960.00
2023-07-20T06:26:24.716Z,9604.00
2023-07-20T06:27:24.454Z,7728.00
2023-07-20T06:28:24.466Z,8020.00
2023-07-20T06:29:24.451Z,6580.00
2023-07-20T06:30:24.450Z,6212.00
2023-07-20T06:31:24.482Z,5756.00
2023-07-20T06:32:24.448Z,5924.00
2023-07-20T06:33:24.447Z,5380.00
2023-07-20T06:34:24.624Z,6940.00
2023-07-20T06:35:24.444Z,10828.00
2023-07-20T06:36:24.660Z,8088.00
2023-07-20T06:37:24.433Z,7436.00
2023-07-20T06:42:24.434Z,27584.00
2023-07-20T06:44:24.464Z,17344.00
2023-07-20T06:45:24.431Z,27456.00
2023-07-20T06:46:24.693Z,6704.00
2023-07-20T06:47:24.453Z,45280.00
2023-07-20T06:48:24.418Z,46144.00
2023-07-20T06:49:24.418Z,50112.00
2023-07-20T06:51:24.800Z,25248.00
2023-07-20T06:52:24.416Z,8036.00
2023-07-20T06:53:24.424Z,49632.00
2023-07-20T06:54:24.490Z,44736.00
2023-07-20T06:55:24.412Z,13896.00
2023-07-20T06:56:26.158Z,15600.00
2023-07-20T06:57:24.422Z,42144.00
2023-07-20T06:58:24.421Z,55136.00
2023-07-20T06:59:24.410Z,21952.00
2023-07-20T07:00:24.411Z,41152.00
2023-07-20T07:01:24.723Z,8904.00
2023-07-20T07:02:24.552Z,9900.00
2023-07-20T07:03:28.405Z,6248.00
2023-07-20T07:04:24.442Z,5344.00
2023-07-20T07:05:24.572Z,4880.00
2023-07-20T07:06:25.101Z,4904.00
2023-07-20T07:07:27.530Z,48992.00
2023-07-20T07:08:24.411Z,59040.00
2023-07-20T07:09:24.409Z,60128.00
2023-07-20T07:10:24.408Z,60320.00
2023-07-20T07:11:24.752Z,55840.00
2023-07-20T07:12:24.409Z,33824.00
2023-07-20T07:13:25.405Z,38944.00
2023-07-20T07:14:26.483Z,57600.00
2023-07-20T07:15:24.405Z,50336.00
2023-07-20T07:16:24.521Z,69312.00
2023-07-20T07:18:24.442Z,44512.00
2023-07-20T07:19:24.406Z,12052.00
2023-07-20T07:20:24.406Z,34624.00
2023-07-20T07:21:24.408Z,51552.00
2023-07-20T07:22:24.409Z,38016.00
2023-07-20T07:23:24.425Z,29216.00
2023-07-20T07:25:24.447Z,26656.00
2023-07-20T07:26:24.750Z,17088.00
2023-07-20T07:27:24.411Z,11324.00
2023-07-20T07:28:24.414Z,13512.00
2023-07-20T07:29:24.414Z,24320.00
2023-07-20T07:30:24.426Z,40448.00
2023-07-20T07:31:24.461Z,28032.00
2023-07-20T07:32:24.477Z,43072.00
2023-07-20T07:33:24.417Z,52352.00
2023-07-20T07:34:24.425Z,35296.00
2023-07-20T07:35:24.433Z,37216.00
2023-07-20T07:36:24.661Z,44096.00
2023-07-20T07:37:24.428Z,33984.00
2023-07-20T07:39:34.223Z,39552.00
2023-07-20T07:40:24.438Z,49184.00
2023-07-20T07:41:24.441Z,40064.00
2023-07-20T07:42:25.270Z,41184.00
2023-07-20T07:43:24.433Z,68896.00
2023-07-20T07:44:24.434Z,25344.00
2023-07-20T07:45:24.447Z,21664.00
2023-07-20T07:46:24.736Z,21824.00
2023-07-20T07:47:24.469Z,23744.00
2023-07-20T07:48:24.443Z,14552.00
2023-07-20T07:49:24.449Z,12676.00
2023-07-20T07:50:24.445Z,14212.00
2023-07-20T07:51:24.446Z,12080.00
2023-07-20T07:52:24.446Z,14164.00
2023-07-20T07:53:24.488Z,17344.00
2023-07-20T07:54:24.450Z,14692.00
2023-07-20T07:55:24.457Z,14868.00
2023-07-20T07:56:25.244Z,15604.00
2023-07-20T07:57:24.457Z,15456.00
2023-07-20T07:58:24.457Z,11236.00
2023-07-20T07:59:24.458Z,10500.00
2023-07-20T08:00:24.467Z,10164.00
2023-07-20T08:01:24.492Z,9680.00
2023-07-20T08:02:24.547Z,9888.00
2023-07-20T08:03:24.628Z,9456.00
2023-07-20T08:04:24.466Z,8988.00
2023-07-20T08:05:24.463Z,8484.00
2023-07-20T08:06:24.730Z,8552.00
2023-07-20T08:07:24.466Z,9448.00
2023-07-20T08:08:24.806Z,9856.00
2023-07-20T08:09:24.466Z,9788.00
2023-07-20T08:10:24.525Z,8784.00
2023-07-20T08:11:24.477Z,10092.00
2023-07-20T08:12:24.495Z,12212.00
2023-07-20T08:13:24.472Z,17408.00
2023-07-20T08:14:24.467Z,26432.00
2023-07-20T08:15:24.480Z,43200.00
2023-07-20T08:16:25.020Z,65952.00
2023-07-20T08:17:24.582Z,39072.00
2023-07-20T08:18:24.585Z,27552.00
2023-07-20T08:19:24.568Z,27456.00
2023-07-20T08:20:24.470Z,27168.00
2023-07-20T08:21:24.476Z,16640.00
2023-07-20T08:22:24.472Z,12632.00
2023-07-20T08:23:24.476Z,12520.00
2023-07-20T08:24:24.511Z,13844.00
2023-07-20T08:25:24.480Z,15232.00
2023-07-20T08:26:24.908Z,15408.00
2023-07-20T08:27:24.476Z,17376.00
2023-07-20T08:28:24.548Z,18976.00
2023-07-20T08:29:24.490Z,20384.00
2023-07-20T08:30:24.510Z,17440.00
2023-07-20T08:31:24.557Z,16672.00
2023-07-20T08:32:24.494Z,15464.00
2023-07-20T08:33:24.478Z,14748.00
2023-07-20T08:34:31.486Z,13332.00
2023-07-20T08:35:24.484Z,11924.00
2023-07-20T08:36:24.799Z,12352.00
2023-07-20T08:37:24.478Z,14116.00
2023-07-20T08:38:24.903Z,15420.00
2023-07-20T08:39:24.485Z,15904.00
2023-07-20T08:40:24.488Z,18176.00
2023-07-20T08:41:24.481Z,16544.00
2023-07-20T08:42:24.482Z,16128.00
2023-07-20T08:43:24.483Z,16480.00
2023-07-20T08:44:24.535Z,15864.00
2023-07-20T08:45:24.484Z,14716.00
2023-07-20T08:46:24.704Z,14596.00
2023-07-20T08:47:24.553Z,13184.00
2023-07-20T08:48:24.487Z,12340.00
2023-07-20T08:49:24.487Z,11928.00
2023-07-20T08:50:24.484Z,11028.00
2023-07-20T08:51:24.485Z,10256.00
2023-07-20T08:52:24.485Z,10184.00
2023-07-20T08:53:24.484Z,11384.00
2023-07-20T08:54:24.492Z,10596.00
2023-07-20T08:55:24.505Z,15564.00
2023-07-20T08:56:24.696Z,49888.00
2023-07-20T08:57:24.488Z,47456.00
2023-07-20T08:58:24.486Z,66656.00
2023-07-20T08:59:24.490Z,8616.00
2023-07-20T09:00:24.639Z,9024.00
2023-07-20T09:01:24.510Z,10708.00
2023-07-20T09:02:24.540Z,76544.00
2023-07-20T09:03:24.517Z,67648.00
2023-07-20T09:04:24.491Z,98560.00
2023-07-20T09:05:24.635Z,18048.00
2023-07-20T09:06:25.006Z,13744.00
2023-07-20T09:07:24.486Z,13640.00
2023-07-20T09:08:24.513Z,15760.00
2023-07-20T09:09:24.488Z,14244.00
2023-07-20T09:10:25.454Z,16288.00
2023-07-20T09:11:24.507Z,16608.00
2023-07-20T09:12:24.490Z,17248.00
2023-07-20T09:13:24.488Z,15284.00
2023-07-20T09:14:24.724Z,15340.00
2023-07-20T09:15:24.502Z,14008.00
2023-07-20T09:16:24.855Z,10568.00
2023-07-20T09:17:25.322Z,8184.00
2023-07-20T09:18:24.493Z,6280.00
2023-07-20T09:19:24.497Z,4396.00
2023-07-20T09:20:24.570Z,3272.00
2023-07-20T09:21:24.498Z,2628.00
2023-07-20T09:22:24.496Z,2300.00
2023-07-20T09:23:24.803Z,1952.00
2023-07-20T09:24:24.563Z,1728.00
2023-07-20T09:25:26.517Z,1724.00
2023-07-20T09:26:24.747Z,1576.00
2023-07-20T09:27:24.520Z,1460.00
2023-07-20T09:28:24.502Z,1532.00
2023-07-20T09:29:24.493Z,1728.00
2023-07-20T09:31:24.534Z,2180.00
2023-07-20T09:32:25.614Z,2632.00
2023-07-20T09:33:27.472Z,3356.00
2023-07-20T09:35:27.813Z,5588.00
2023-07-20T09:36:58.411Z,5684.00
2023-07-20T09:37:24.629Z,5596.00
2023-07-20T09:38:24.658Z,6236.00
2023-07-20T09:40:55.082Z,7816.00
2023-07-20T09:43:26.328Z,6304.00
2023-07-20T09:45:57.466Z,7064.00
2023-07-20T09:50:26.556Z,9216.00
2023-07-20T09:51:24.483Z,9492.00
2023-07-20T09:53:24.472Z,8236.00
2023-07-20T09:54:24.466Z,7612.00
2023-07-20T09:55:24.466Z,7424.00
2023-07-20T09:56:24.845Z,7640.00
2023-07-20T09:57:24.473Z,7472.00
2023-07-20T09:58:24.462Z,7788.00
2023-07-20T09:59:24.462Z,9012.00
2023-07-20T10:01:26.256Z,11028.00
2023-07-20T10:02:24.490Z,10844.00
2023-07-20T10:03:24.457Z,8824.00
2023-07-20T10:04:24.456Z,6820.00
2023-07-20T10:05:24.486Z,5496.00
2023-07-20T10:06:24.740Z,5132.00
2023-07-20T10:07:24.449Z,4980.00
2023-07-20T10:09:24.503Z,4984.00
2023-07-20T10:10:24.449Z,5932.00
2023-07-20T10:11:24.502Z,7056.00
2023-07-20T10:12:24.455Z,8156.00
2023-07-20T10:13:24.431Z,7632.00
2023-07-20T10:14:24.436Z,7288.00
2023-07-20T10:15:24.436Z,7188.00
2023-07-20T10:16:24.734Z,6820.00
2023-07-20T10:17:24.456Z,6560.00
2023-07-20T10:18:24.435Z,6928.00
2023-07-20T10:19:24.429Z,7976.00
2023-07-20T10:20:24.428Z,9232.00
2023-07-20T10:22:24.424Z,11260.00
2023-07-20T10:23:24.427Z,11132.00
2023-07-20T10:24:24.437Z,11208.00
2023-07-20T10:25:24.419Z,11720.00
2023-07-20T10:26:24.693Z,12072.00
2023-07-20T10:27:25.741Z,12292.00
2023-07-20T10:28:24.418Z,12100.00
2023-07-20T10:29:24.419Z,12316.00
2023-07-20T10:30:24.413Z,12644.00
2023-07-20T10:31:24.459Z,12648.00
2023-07-20T10:32:24.414Z,12924.00
2023-07-20T10:33:24.410Z,12380.00
2023-07-20T10:34:24.408Z,12156.00
2023-07-20T10:35:24.431Z,12116.00
2023-07-20T10:36:24.596Z,12748.00
2023-07-20T10:37:24.405Z,13056.00
2023-07-20T10:38:24.405Z,12724.00
2023-07-20T10:39:24.443Z,12100.00
2023-07-20T10:40:24.405Z,11424.00
2023-07-20T10:41:24.404Z,10844.00
2023-07-20T10:42:24.403Z,11388.00
2023-07-20T10:43:24.399Z,11408.00
2023-07-20T10:44:24.396Z,11772.00
2023-07-20T10:45:25.303Z,11556.00
2023-07-20T10:46:24.624Z,11080.00
2023-07-20T10:47:24.432Z,11048.00
2023-07-20T10:48:24.434Z,10800.00
2023-07-20T10:49:24.394Z,10804.00
2023-07-20T10:50:24.487Z,10920.00
2023-07-20T10:51:24.404Z,10236.00
2023-07-20T10:52:24.388Z,9408.00
2023-07-20T10:53:24.386Z,9696.00
2023-07-20T10:54:24.392Z,9756.00
2023-07-20T10:55:24.387Z,9548.00
2023-07-20T10:56:24.763Z,9200.00
2023-07-20T10:57:24.404Z,8996.00
2023-07-20T10:58:24.390Z,8292.00
2023-07-20T10:59:24.388Z,7652.00
2023-07-20T11:00:24.382Z,7628.00
2023-07-20T11:01:24.587Z,7736.00
2023-07-20T11:02:24.467Z,7300.00
2023-07-20T11:03:24.981Z,6960.00
2023-07-20T11:04:24.408Z,7300.00
2023-07-20T11:05:24.414Z,7984.00
2023-07-20T11:06:24.380Z,8476.00
2023-07-20T11:07:25.403Z,9748.00
2023-07-20T11:08:24.373Z,10104.00
2023-07-20T11:09:25.956Z,10720.00
2023-07-20T11:10:24.399Z,10932.00
2023-07-20T11:11:24.628Z,10964.00
2023-07-20T11:12:24.371Z,11412.00
2023-07-20T11:13:24.445Z,11492.00
2023-07-20T11:14:24.370Z,10588.00
2023-07-20T11:15:24.369Z,10944.00
2023-07-20T11:16:24.720Z,11812.00
2023-07-20T11:17:24.377Z,11160.00
2023-07-20T11:18:24.366Z,10120.00
2023-07-20T11:20:24.368Z,9684.00
2023-07-20T11:21:24.832Z,9504.00
2023-07-20T11:22:24.367Z,10816.00
2023-07-20T11:23:24.375Z,11116.00
2023-07-20T11:24:24.439Z,10736.00
2023-07-20T11:25:24.361Z,9816.00
2023-07-20T11:26:24.365Z,9780.00
2023-07-20T11:27:24.369Z,9216.00
2023-07-20T11:28:24.363Z,10084.00
2023-07-20T11:29:31.167Z,9592.00
2023-07-20T11:30:24.460Z,8940.00
2023-07-20T11:31:24.832Z,8288.00
2023-07-20T11:32:24.360Z,7488.00
2023-07-20T11:33:24.369Z,8272.00
2023-07-20T11:34:24.360Z,9184.00
2023-07-20T11:35:24.364Z,8304.00
2023-07-20T11:37:24.379Z,5232.00
2023-07-20T11:38:24.368Z,4496.00
2023-07-20T11:39:24.363Z,3996.00
2023-07-20T11:40:27.124Z,3852.00
2023-07-20T11:41:24.369Z,3584.00
2023-07-20T11:43:24.418Z,3520.00
2023-07-20T11:44:25.258Z,3864.00
2023-07-20T11:45:24.356Z,4676.00
2023-07-20T11:46:24.716Z,5732.00
2023-07-20T11:47:24.363Z,5556.00
2023-07-20T11:48:24.360Z,4684.00
2023-07-20T11:49:24.358Z,5116.00
2023-07-20T11:50:24.352Z,6180.00
2023-07-20T11:51:24.368Z,5752.00
2023-07-20T11:52:24.369Z,5296.00
2023-07-20T11:53:24.350Z,5984.00
2023-07-20T11:54:24.399Z,6776.00
2023-07-20T11:55:24.352Z,6640.00
2023-07-20T11:56:24.598Z,6264.00
2023-07-20T11:57:24.344Z,6516.00
2023-07-20T11:58:24.342Z,6712.00
2023-07-20T11:59:24.338Z,6684.00
2023-07-20T12:00:26.435Z,6700.00
2023-07-20T12:01:24.347Z,6628.00
2023-07-20T12:02:24.349Z,6528.00
2023-07-20T12:03:24.344Z,6152.00
2023-07-20T12:04:24.398Z,5696.00
2023-07-20T12:05:24.340Z,5712.00
2023-07-20T12:06:25.440Z,5816.00
2023-07-20T12:07:24.366Z,5992.00
2023-07-20T12:08:24.341Z,6020.00
2023-07-20T12:09:26.208Z,6084.00
2023-07-20T12:10:24.321Z,6208.00
2023-07-20T12:11:24.320Z,6404.00
2023-07-20T12:12:25.583Z,6512.00
2023-07-20T12:13:24.325Z,6868.00
2023-07-20T12:14:24.312Z,7564.00
2023-07-20T12:15:24.324Z,7820.00
2023-07-20T12:16:24.520Z,7940.00
2023-07-20T12:17:24.366Z,8668.00
2023-07-20T12:18:24.347Z,9824.00
2023-07-20T12:19:24.325Z,8888.00
2023-07-20T12:20:24.310Z,8788.00
2023-07-20T12:21:24.306Z,8704.00
2023-07-20T12:22:24.307Z,9216.00
2023-07-20T12:23:24.303Z,8548.00
2023-07-20T12:24:24.359Z,8880.00
2023-07-20T12:25:24.313Z,9008.00
2023-07-20T12:26:24.406Z,8928.00
2023-07-20T12:27:24.302Z,10016.00
2023-07-20T12:28:24.302Z,7668.00
2023-07-20T12:29:24.299Z,5784.00
2023-07-20T12:30:24.297Z,4780.00
2023-07-20T12:31:24.355Z,4264.00
2023-07-20T12:32:24.303Z,3744.00
2023-07-20T12:33:24.297Z,3320.00
2023-07-20T12:34:24.299Z,3052.00
2023-07-20T12:35:24.291Z,2888.00
2023-07-20T12:36:24.530Z,2824.00
2023-07-20T12:37:24.297Z,2760.00
2023-07-20T12:38:24.296Z,2716.00
2023-07-20T12:39:24.286Z,2684.00
2023-07-20T12:40:24.290Z,2644.00
2023-07-20T12:41:24.290Z,2648.00
2023-07-20T12:42:24.297Z,2620.00
2023-07-20T12:43:24.285Z,2616.00
2023-07-20T12:44:24.281Z,2616.00
2023-07-20T12:45:24.275Z,2668.00